createdAt,value
2023-02-24T00:04:53.019Z,97551.47
2023-02-24T00:09:55.401Z,97548.28
2023-02-24T00:14:58.203Z,97546.94
2023-02-24T00:20:00.622Z,97540.75
2023-02-24T00:25:04.008Z,97554.06
2023-02-24T00:30:07.966Z,97538.19
2023-02-24T00:35:10.698Z,97538.06
2023-02-24T00:40:13.608Z,97531.53
2023-02-24T00:45:16.883Z,97529.44
2023-02-24T00:50:19.467Z,97532.34
2023-02-24T00:55:23.306Z,97524.81
2023-02-24T01:00:25.906Z,97523.75
2023-02-24T01:05:29.293Z,97526.16
2023-02-24T01:10:34.587Z,97518.84
2023-02-24T01:15:37.176Z,97517.03
2023-02-24T01:20:39.651Z,97514.63
2023-02-24T01:25:47.857Z,97509.59
2023-02-24T01:30:50.247Z,97501.69
2023-02-24T01:35:55.504Z,97494.28
2023-02-24T01:40:59.358Z,97497.88
2023-02-24T01:46:01.783Z,97501.28
2023-02-24T01:51:04.255Z,97497.31
2023-02-24T01:56:07.314Z,97488.28
2023-02-24T02:01:10.965Z,97487.38
2023-02-24T02:06:17.855Z,97480.16
2023-02-24T02:11:20.884Z,97483.91
2023-02-24T02:16:53.175Z,97476.22
2023-02-24T02:22:06.061Z,97479.09
2023-02-24T02:27:21.267Z,97463.81
2023-02-24T02:32:35.953Z,97455.63
2023-02-24T02:38:03.371Z,97454.50
2023-02-24T02:43:29.751Z,97450.81
2023-02-24T02:48:54.723Z,97443.22
2023-02-24T02:54:21.717Z,97442.22
2023-02-24T02:59:28.088Z,97432.56
2023-02-24T03:04:30.843Z,97436.59
2023-02-24T03:09:39.816Z,97426.72
2023-02-24T03:14:59.188Z,97426.66
2023-02-24T03:20:29.304Z,97414.34
2023-02-24T03:26:01.417Z,97411.09
2023-02-24T03:31:27.841Z,97402.22
2023-02-24T03:36:32.774Z,97400.69
2023-02-24T03:41:42.403Z,97404.00
2023-02-24T03:46:45.256Z,97411.38
2023-02-24T03:52:32.502Z,97405.72
2023-02-24T03:58:35.949Z,97408.91
2023-02-24T04:04:16.378Z,97399.88
2023-02-24T04:10:06.445Z,97402.22
2023-02-24T04:15:52.777Z,97409.94
2023-02-24T04:20:59.826Z,97398.63
2023-02-24T04:26:03.450Z,97404.44
2023-02-24T04:31:11.471Z,97405.41
2023-02-24T04:36:18.847Z,97393.06
2023-02-24T04:41:23.260Z,97390.34
2023-02-24T04:46:26.266Z,97382.38
2023-02-24T04:51:31.889Z,97379.41
2023-02-24T04:56:35.657Z,97372.59
2023-02-24T05:01:42.502Z,97355.88
2023-02-24T05:06:45.986Z,97360.91
2023-02-24T05:11:50.472Z,97356.84
2023-02-24T05:16:53.057Z,97347.91
2023-02-24T05:21:57.880Z,97339.25
2023-02-24T05:27:01.383Z,97337.41
2023-02-24T05:32:05.778Z,97333.25
2023-02-24T05:37:10.913Z,97321.47
2023-02-24T05:42:13.490Z,97307.22
2023-02-24T05:47:19.823Z,97306.59
2023-02-24T05:52:22.714Z,97305.88
2023-02-24T05:57:27.544Z,97299.31
2023-02-24T06:02:37.412Z,97297.91
2023-02-24T06:07:40.584Z,97294.75
2023-02-24T06:12:43.730Z,97296.88
2023-02-24T06:17:46.150Z,97289.91
2023-02-24T06:22:48.775Z,97290.41
2023-02-24T06:27:55.762Z,97293.56
2023-02-24T06:32:58.312Z,97291.47
2023-02-24T06:38:00.803Z,97291.16
2023-02-24T06:43:03.356Z,97284.72
2023-02-24T06:48:07.918Z,97286.88
2023-02-24T06:53:17.032Z,97281.56
2023-02-24T06:58:20.903Z,97268.78
2023-02-24T07:03:39.236Z,97278.78
2023-02-24T07:08:44.277Z,97271.16
2023-02-24T07:13:48.594Z,97269.56
2023-02-24T07:18:58.105Z,97271.50
2023-02-24T07:24:04.101Z,97262.09
2023-02-24T07:29:06.669Z,97268.47
2023-02-24T07:34:09.453Z,97265.31
2023-02-24T07:39:12.146Z,97260.06
2023-02-24T07:44:15.544Z,97264.00
2023-02-24T07:49:21.233Z,97263.34
2023-02-24T07:54:25.444Z,97252.13
2023-02-24T07:59:33.958Z,97255.50
2023-02-24T08:04:39.842Z,97253.38
2023-02-24T08:09:45.762Z,97245.56
2023-02-24T08:14:53.386Z,97244.66
2023-02-24T08:20:14.743Z,97248.88
2023-02-24T08:25:19.335Z,97231.25
2023-02-24T08:30:25.799Z,97223.03
2023-02-24T08:35:35.927Z,97220.34
2023-02-24T08:40:51.851Z,97218.16
2023-02-24T08:46:01.107Z,97210.75
2023-02-24T08:51:28.674Z,97205.59
2023-02-24T08:56:35.175Z,97202.41
2023-02-24T09:02:03.663Z,97198.47
2023-02-24T09:07:15.503Z,97193.13
2023-02-24T09:12:25.096Z,97189.53
2023-02-24T09:17:45.161Z,97187.72
2023-02-24T09:23:06.191Z,97184.69
2023-02-24T09:28:25.140Z,97178.06
2023-02-24T09:33:39.344Z,97169.25
2023-02-24T09:39:01.416Z,97170.47
2023-02-24T09:44:19.908Z,97166.38
2023-02-24T09:49:46.725Z,97169.19
2023-02-24T09:55:11.335Z,97158.56
2023-02-24T10:00:33.576Z,97150.84
2023-02-24T10:05:59.070Z,97143.03
2023-02-24T10:11:09.157Z,97137.41
2023-02-24T10:16:23.989Z,97136.16
2023-02-24T10:21:49.673Z,97146.44
2023-02-24T10:27:16.883Z,97131.78
2023-02-24T10:32:41.520Z,97132.34
2023-02-24T10:37:44.569Z,97129.72
2023-02-24T10:42:48.864Z,97125.13
2023-02-24T10:47:59.916Z,97124.56
2023-02-24T10:53:26.526Z,97119.69
2023-02-24T10:58:56.876Z,97109.69
2023-02-24T11:04:22.808Z,97105.41
2023-02-24T11:09:29.501Z,97095.78
2023-02-24T11:15:09.905Z,97086.44
2023-02-24T11:20:51.262Z,97086.66
2023-02-24T11:26:00.844Z,97069.72
2023-02-24T11:31:37.108Z,97055.44
2023-02-24T11:37:10.641Z,97049.97
2023-02-24T11:42:22.548Z,97041.13
2023-02-24T11:47:41.483Z,97035.09
2023-02-24T11:52:49.551Z,97010.03
2023-02-24T11:57:56.708Z,96995.25
2023-02-24T12:03:58.102Z,96977.84
2023-02-24T12:09:14.227Z,96976.97
2023-02-24T12:14:47.806Z,96962.31
2023-02-24T12:20:03.957Z,96949.22
2023-02-24T12:25:11.931Z,96945.84
2023-02-24T12:30:48.779Z,96937.31
2023-02-24T12:37:10.336Z,96912.63
2023-02-24T12:42:31.492Z,96904.13
2023-02-24T12:47:43.050Z,96904.03
2023-02-24T12:53:20.598Z,96903.03
2023-02-24T12:58:32.397Z,96898.41
2023-02-24T13:04:11.706Z,96888.97
2023-02-24T13:09:46.399Z,96876.13
2023-02-24T13:14:50.365Z,96874.91
2023-02-24T13:19:56.131Z,96869.47
2023-02-24T13:25:21.051Z,96855.66
2023-02-24T13:30:39.501Z,96850.28
2023-02-24T13:35:41.930Z,96851.50
2023-02-24T13:40:44.116Z,96837.69
2023-02-24T13:45:58.236Z,96826.16
2023-02-24T13:51:52.598Z,96821.72
2023-02-24T13:57:07.210Z,96810.50
2023-02-24T14:02:21.102Z,96800.53
2023-02-24T14:07:35.949Z,96798.31
2023-02-24T14:12:42.482Z,96795.69
2023-02-24T14:17:53.983Z,96806.59
2023-02-24T14:22:58.973Z,96790.78
2023-02-24T14:28:01.826Z,96776.97
2023-02-24T14:33:07.847Z,96787.94
2023-02-24T14:38:39.838Z,96777.06
2023-02-24T14:43:43.415Z,96762.16
2023-02-24T14:48:51.792Z,96749.56
2023-02-24T14:53:59.829Z,96764.41
2023-02-24T14:59:35.104Z,96755.22
2023-02-24T15:04:43.877Z,96753.13
2023-02-24T15:09:48.484Z,96734.88
2023-02-24T15:15:00.808Z,96734.84
2023-02-24T15:20:05.458Z,96710.41
2023-02-24T15:25:19.239Z,96717.16
2023-02-24T15:30:38.424Z,96713.88
2023-02-24T15:35:50.927Z,96703.47
2023-02-24T15:40:57.699Z,96701.75
2023-02-24T15:46:00.445Z,96697.63
2023-02-24T15:51:07.006Z,96691.38
2023-02-24T15:56:09.255Z,96695.72
2023-02-24T16:01:13.554Z,96700.50
2023-02-24T16:06:21.402Z,96690.44
2023-02-24T16:11:40.668Z,96679.75
2023-02-24T16:16:43.899Z,96676.13
2023-02-24T16:21:46.524Z,96677.53
2023-02-24T16:26:51.635Z,96689.03
2023-02-24T16:31:54.113Z,96690.38
2023-02-24T16:36:56.228Z,96674.72
2023-02-24T16:41:59.498Z,96676.44
2023-02-24T16:47:01.843Z,96684.91
2023-02-24T16:52:04.123Z,96678.72
2023-02-24T16:57:06.612Z,96674.22
2023-02-24T17:02:21.918Z,96671.69
2023-02-24T17:07:24.309Z,96662.47
2023-02-24T17:12:26.436Z,96668.31
2023-02-24T17:17:28.560Z,96676.06
2023-02-24T17:22:31.204Z,96679.72
2023-02-24T17:27:33.849Z,96682.94
2023-02-24T17:32:36.318Z,96687.31
2023-02-24T17:37:38.778Z,96697.25
2023-02-24T17:42:41.446Z,96694.22
2023-02-24T17:47:44.349Z,96681.88
2023-02-24T17:52:46.796Z,96686.66
2023-02-24T17:57:49.243Z,96674.47
2023-02-24T18:02:53.644Z,96688.22
2023-02-24T18:07:58.685Z,96681.22
2023-02-24T18:13:01.374Z,96683.31
2023-02-24T18:18:04.047Z,96673.03
2023-02-24T18:23:06.675Z,96684.53
2023-02-24T18:28:09.188Z,96684.25
2023-02-24T18:33:11.677Z,96678.09
2023-02-24T18:38:14.500Z,96674.91
2023-02-24T18:43:17.031Z,96683.97
2023-02-24T18:48:19.678Z,96684.13
2023-02-24T18:53:23.797Z,96691.16
2023-02-24T18:58:26.297Z,96695.69
2023-02-24T19:03:28.698Z,96693.28
2023-02-24T19:08:31.617Z,96689.16
2023-02-24T19:13:34.117Z,96684.28
2023-02-24T19:18:37.031Z,96686.53
2023-02-24T19:23:39.729Z,96674.28
2023-02-24T19:28:42.393Z,96684.88
2023-02-24T19:33:45.122Z,96702.03
2023-02-24T19:38:47.682Z,96686.34
2023-02-24T19:43:50.178Z,96678.53
2023-02-24T19:48:52.575Z,96693.66
2023-02-24T19:53:57.229Z,96673.88
2023-02-24T19:59:01.366Z,96668.28
2023-02-24T20:04:05.496Z,96659.50
2023-02-24T20:09:10.574Z,96671.00
2023-02-24T20:14:15.280Z,96687.28
2023-02-24T20:19:18.168Z,96681.63
2023-02-24T20:24:20.629Z,96689.34
2023-02-24T20:29:23.156Z,96692.81
2023-02-24T20:34:26.182Z,96685.72
2023-02-24T20:39:28.744Z,96694.78
2023-02-24T20:44:31.194Z,96700.25
2023-02-24T20:49:33.890Z,96693.03
2023-02-24T20:54:36.337Z,96714.47
2023-02-24T20:59:43.974Z,96712.94
2023-02-24T21:04:50.940Z,96720.81
2023-02-24T21:09:53.458Z,96721.72
2023-02-24T21:14:55.954Z,96724.44
2023-02-24T21:19:58.549Z,96725.50
2023-02-24T21:25:01.113Z,96760.50
2023-02-24T21:30:05.332Z,96770.47
2023-02-24T21:35:08.378Z,96767.56
2023-02-24T21:40:11.758Z,96772.84
2023-02-24T21:45:15.060Z,96783.28
2023-02-24T21:50:18.205Z,96786.25
2023-02-24T21:55:20.670Z,96797.13
2023-02-24T22:00:24.177Z,96811.94
2023-02-24T22:05:27.094Z,96814.88
2023-02-24T22:10:29.575Z,96825.44
2023-02-24T22:15:32.845Z,96828.66
2023-02-24T22:20:35.214Z,96836.38
2023-02-24T22:25:37.715Z,96820.28
2023-02-24T22:30:40.155Z,96828.38
2023-02-24T22:35:42.941Z,96834.22
2023-02-24T22:40:45.720Z,96831.38
2023-02-24T22:45:57.198Z,96808.47
2023-02-24T22:51:01.650Z,96815.72
2023-02-24T22:56:04.650Z,96827.81
2023-02-24T23:01:15.804Z,96823.09
2023-02-24T23:06:28.352Z,96825.66
2023-02-24T23:11:34.927Z,96831.38
2023-02-24T23:16:38.884Z,96831.16
2023-02-24T23:21:45.378Z,96830.41
2023-02-24T23:26:54.098Z,96835.72
2023-02-24T23:31:57.386Z,96837.91
2023-02-24T23:36:59.559Z,96842.25
2023-02-24T23:42:01.742Z,96842.56
2023-02-24T23:47:05.103Z,96859.94
2023-02-24T23:52:08.448Z,96851.69
2023-02-24T23:57:10.457Z,96858.72
